sensor_id;sensor_type;location;lat;lon;timestamp;temperature;humidity
298;DHT22;133;49.626;9.680;2023-08-24T00:01:16;19.10;85.40
298;DHT22;133;49.626;9.680;2023-08-24T00:03:44;19.10;85.40
298;DHT22;133;49.626;9.680;2023-08-24T00:06:11;19.10;85.50
298;DHT22;133;49.626;9.680;2023-08-24T00:08:37;19.10;85.70
298;DHT22;133;49.626;9.680;2023-08-24T00:11:02;19.10;85.90
298;DHT22;133;49.626;9.680;2023-08-24T00:13:28;19.00;85.90
298;DHT22;133;49.626;9.680;2023-08-24T00:15:54;19.00;86.00
298;DHT22;133;49.626;9.680;2023-08-24T00:18:20;19.00;86.20
298;DHT22;133;49.626;9.680;2023-08-24T00:20:48;19.00;86.10
298;DHT22;133;49.626;9.680;2023-08-24T00:23:13;18.90;86.10
298;DHT22;133;49.626;9.680;2023-08-24T00:25:39;18.90;86.50
298;DHT22;133;49.626;9.680;2023-08-24T00:28:06;18.90;86.20
298;DHT22;133;49.626;9.680;2023-08-24T00:30:32;18.90;86.20
298;DHT22;133;49.626;9.680;2023-08-24T00:32:58;18.90;86.30
298;DHT22;133;49.626;9.680;2023-08-24T00:35:23;18.90;86.60
298;DHT22;133;49.626;9.680;2023-08-24T00:37:49;18.90;86.60
298;DHT22;133;49.626;9.680;2023-08-24T00:40:16;18.80;86.50
298;DHT22;133;49.626;9.680;2023-08-24T00:42:43;18.80;86.80
298;DHT22;133;49.626;9.680;2023-08-24T00:45:10;18.70;86.90
298;DHT22;133;49.626;9.680;2023-08-24T00:47:38;18.60;87.30
298;DHT22;133;49.626;9.680;2023-08-24T00:50:06;18.60;87.50
298;DHT22;133;49.626;9.680;2023-08-24T00:52:32;18.60;87.70
298;DHT22;133;49.626;9.680;2023-08-24T00:55:02;18.60;87.80
298;DHT22;133;49.626;9.680;2023-08-24T00:57:28;18.60;88.00
298;DHT22;133;49.626;9.680;2023-08-24T00:59:55;18.60;87.80
298;DHT22;133;49.626;9.680;2023-08-24T01:02:21;18.60;88.00
298;DHT22;133;49.626;9.680;2023-08-24T01:04:47;18.60;87.90
298;DHT22;133;49.626;9.680;2023-08-24T01:07:13;18.60;87.30
298;DHT22;133;49.626;9.680;2023-08-24T01:09:40;18.40;87.70
298;DHT22;133;49.626;9.680;2023-08-24T01:15:07;18.40;87.80
298;DHT22;133;49.626;9.680;2023-08-24T01:17:35;18.30;88.30
298;DHT22;133;49.626;9.680;2023-08-24T01:20:01;18.30;88.30
298;DHT22;133;49.626;9.680;2023-08-24T01:22:37;18.30;88.30
298;DHT22;133;49.626;9.680;2023-08-24T01:25:11;18.20;88.80
298;DHT22;133;49.626;9.680;2023-08-24T01:27:38;18.20;88.60
298;DHT22;133;49.626;9.680;2023-08-24T01:30:04;18.20;88.70
298;DHT22;133;49.626;9.680;2023-08-24T01:32:34;18.10;88.80
298;DHT22;133;49.626;9.680;2023-08-24T01:35:06;18.00;88.90
298;DHT22;133;49.626;9.680;2023-08-24T01:37:35;18.00;89.10
298;DHT22;133;49.626;9.680;2023-08-24T01:40:05;18.00;89.30
298;DHT22;133;49.626;9.680;2023-08-24T01:45:14;18.00;89.70
298;DHT22;133;49.626;9.680;2023-08-24T01:47:43;18.00;89.70
298;DHT22;133;49.626;9.680;2023-08-24T01:50:09;18.00;90.00
298;DHT22;133;49.626;9.680;2023-08-24T01:52:35;17.90;90.10
298;DHT22;133;49.626;9.680;2023-08-24T01:55:01;17.90;89.90
298;DHT22;133;49.626;9.680;2023-08-24T01:57:27;17.90;90.10
298;DHT22;133;49.626;9.680;2023-08-24T01:59:52;18.00;89.90
298;DHT22;133;49.626;9.680;2023-08-24T02:02:18;18.00;90.00
298;DHT22;133;49.626;9.680;2023-08-24T02:04:44;18.00;89.80
298;DHT22;133;49.626;9.680;2023-08-24T02:07:09;17.90;89.60
298;DHT22;133;49.626;9.680;2023-08-24T02:09:35;17.80;89.80
298;DHT22;133;49.626;9.680;2023-08-24T02:12:00;17.90;89.70
298;DHT22;133;49.626;9.680;2023-08-24T02:14:26;17.90;89.20
298;DHT22;133;49.626;9.680;2023-08-24T02:16:51;17.90;89.40
298;DHT22;133;49.626;9.680;2023-08-24T02:19:17;17.80;89.50
298;DHT22;133;49.626;9.680;2023-08-24T02:21:43;17.80;89.50
298;DHT22;133;49.626;9.680;2023-08-24T02:24:08;17.70;89.90
298;DHT22;133;49.626;9.680;2023-08-24T02:26:34;17.70;89.60
298;DHT22;133;49.626;9.680;2023-08-24T02:29:00;17.70;89.70
298;DHT22;133;49.626;9.680;2023-08-24T02:31:25;17.60;90.00
298;DHT22;133;49.626;9.680;2023-08-24T02:33:51;17.60;90.20
298;DHT22;133;49.626;9.680;2023-08-24T02:36:17;17.60;90.00
298;DHT22;133;49.626;9.680;2023-08-24T02:38:43;17.60;89.90
298;DHT22;133;49.626;9.680;2023-08-24T02:41:08;17.50;90.10
298;DHT22;133;49.626;9.680;2023-08-24T02:43:36;17.50;90.30
298;DHT22;133;49.626;9.680;2023-08-24T02:46:07;17.50;90.40
298;DHT22;133;49.626;9.680;2023-08-24T02:48:33;17.50;90.40
298;DHT22;133;49.626;9.680;2023-08-24T02:51:00;17.50;90.60
298;DHT22;133;49.626;9.680;2023-08-24T02:53:26;17.50;90.80
298;DHT22;133;49.626;9.680;2023-08-24T02:55:53;17.50;91.00
298;DHT22;133;49.626;9.680;2023-08-24T02:58:19;17.40;91.20
298;DHT22;133;49.626;9.680;2023-08-24T03:00:45;17.50;91.20
298;DHT22;133;49.626;9.680;2023-08-24T03:03:10;17.50;91.40
298;DHT22;133;49.626;9.680;2023-08-24T03:05:36;17.40;91.30
298;DHT22;133;49.626;9.680;2023-08-24T03:08:02;17.30;91.20
298;DHT22;133;49.626;9.680;2023-08-24T03:10:30;17.30;91.30
298;DHT22;133;49.626;9.680;2023-08-24T03:12:55;17.30;91.50
298;DHT22;133;49.626;9.680;2023-08-24T03:15:21;17.20;91.70
298;DHT22;133;49.626;9.680;2023-08-24T03:17:47;17.30;91.80
298;DHT22;133;49.626;9.680;2023-08-24T03:20:13;17.20;91.40
298;DHT22;133;49.626;9.680;2023-08-24T03:22:39;17.20;91.30
298;DHT22;133;49.626;9.680;2023-08-24T03:25:06;17.20;91.40
298;DHT22;133;49.626;9.680;2023-08-24T03:27:31;17.20;91.60
298;DHT22;133;49.626;9.680;2023-08-24T03:29:57;17.10;91.70
298;DHT22;133;49.626;9.680;2023-08-24T03:32:24;17.10;91.70
298;DHT22;133;49.626;9.680;2023-08-24T03:34:49;17.10;91.60
298;DHT22;133;49.626;9.680;2023-08-24T03:37:15;17.10;91.60
298;DHT22;133;49.626;9.680;2023-08-24T03:39:41;17.10;91.50
298;DHT22;133;49.626;9.680;2023-08-24T03:42:07;17.10;91.50
298;DHT22;133;49.626;9.680;2023-08-24T03:44:33;17.10;91.50
298;DHT22;133;49.626;9.680;2023-08-24T03:46:59;17.10;91.60
298;DHT22;133;49.626;9.680;2023-08-24T03:49:24;17.10;91.50
298;DHT22;133;49.626;9.680;2023-08-24T03:51:51;17.10;91.70
298;DHT22;133;49.626;9.680;2023-08-24T03:54:17;17.00;91.90
298;DHT22;133;49.626;9.680;2023-08-24T03:56:43;17.00;92.10
298;DHT22;133;49.626;9.680;2023-08-24T03:59:08;17.00;92.10
298;DHT22;133;49.626;9.680;2023-08-24T04:01:34;17.00;92.30
298;DHT22;133;49.626;9.680;2023-08-24T04:03:59;17.00;92.60
298;DHT22;133;49.626;9.680;2023-08-24T04:06:25;17.00;92.80
298;DHT22;133;49.626;9.680;2023-08-24T04:08:50;17.00;92.60
298;DHT22;133;49.626;9.680;2023-08-24T04:11:17;17.00;92.50
298;DHT22;133;49.626;9.680;2023-08-24T04:13:43;17.00;92.40
298;DHT22;133;49.626;9.680;2023-08-24T04:16:08;17.10;92.50
298;DHT22;133;49.626;9.680;2023-08-24T04:18:34;17.10;92.50
298;DHT22;133;49.626;9.680;2023-08-24T04:20:59;17.10;92.40
298;DHT22;133;49.626;9.680;2023-08-24T04:23:25;17.20;92.00
298;DHT22;133;49.626;9.680;2023-08-24T04:25:54;17.20;92.10
298;DHT22;133;49.626;9.680;2023-08-24T04:28:20;17.20;92.00
298;DHT22;133;49.626;9.680;2023-08-24T04:30:53;17.30;92.00
298;DHT22;133;49.626;9.680;2023-08-24T04:33:19;17.30;91.90
298;DHT22;133;49.626;9.680;2023-08-24T04:35:49;17.30;91.90
298;DHT22;133;49.626;9.680;2023-08-24T04:38:15;17.30;91.90
298;DHT22;133;49.626;9.680;2023-08-24T04:40:52;17.40;91.80
298;DHT22;133;49.626;9.680;2023-08-24T04:43:19;17.40;91.70
298;DHT22;133;49.626;9.680;2023-08-24T04:45:47;17.30;92.30
298;DHT22;133;49.626;9.680;2023-08-24T04:48:13;17.30;93.20
298;DHT22;133;49.626;9.680;2023-08-24T04:50:39;17.30;94.40
298;DHT22;133;49.626;9.680;2023-08-24T04:53:05;17.20;94.60
298;DHT22;133;49.626;9.680;2023-08-24T04:55:31;17.20;94.40
298;DHT22;133;49.626;9.680;2023-08-24T04:57:56;16.90;94.80
298;DHT22;133;49.626;9.680;2023-08-24T05:00:22;16.70;94.90
298;DHT22;133;49.626;9.680;2023-08-24T05:02:48;16.70;95.50
298;DHT22;133;49.626;9.680;2023-08-24T05:05:14;16.80;95.50
298;DHT22;133;49.626;9.680;2023-08-24T05:07:40;16.80;95.50
298;DHT22;133;49.626;9.680;2023-08-24T05:10:06;16.80;95.00
298;DHT22;133;49.626;9.680;2023-08-24T05:12:32;16.70;95.40
298;DHT22;133;49.626;9.680;2023-08-24T05:15:01;16.70;95.20
298;DHT22;133;49.626;9.680;2023-08-24T05:17:27;16.70;95.60
298;DHT22;133;49.626;9.680;2023-08-24T05:19:56;16.80;95.90
298;DHT22;133;49.626;9.680;2023-08-24T05:22:21;16.90;96.60
298;DHT22;133;49.626;9.680;2023-08-24T05:24:47;16.90;96.70
298;DHT22;133;49.626;9.680;2023-08-24T05:27:13;16.90;95.90
298;DHT22;133;49.626;9.680;2023-08-24T05:29:38;16.80;95.50
298;DHT22;133;49.626;9.680;2023-08-24T05:32:04;16.70;95.80
298;DHT22;133;49.626;9.680;2023-08-24T05:34:30;16.70;95.80
298;DHT22;133;49.626;9.680;2023-08-24T05:36:55;16.80;96.10
298;DHT22;133;49.626;9.680;2023-08-24T05:39:21;16.90;96.20
298;DHT22;133;49.626;9.680;2023-08-24T05:41:50;17.10;95.60
298;DHT22;133;49.626;9.680;2023-08-24T05:44:16;17.20;95.30
298;DHT22;133;49.626;9.680;2023-08-24T05:46:42;17.30;95.30
298;DHT22;133;49.626;9.680;2023-08-24T05:49:08;17.40;95.70
298;DHT22;133;49.626;9.680;2023-08-24T05:51:34;17.50;95.20
298;DHT22;133;49.626;9.680;2023-08-24T05:54:00;17.70;94.90
298;DHT22;133;49.626;9.680;2023-08-24T05:56:26;17.80;94.60
298;DHT22;133;49.626;9.680;2023-08-24T05:58:51;17.90;93.80
298;DHT22;133;49.626;9.680;2023-08-24T06:01:17;18.00;93.20
298;DHT22;133;49.626;9.680;2023-08-24T06:03:43;18.10;93.20
298;DHT22;133;49.626;9.680;2023-08-24T06:06:09;18.20;93.10
298;DHT22;133;49.626;9.680;2023-08-24T06:08:35;18.30;92.70
298;DHT22;133;49.626;9.680;2023-08-24T06:11:00;18.40;92.60
298;DHT22;133;49.626;9.680;2023-08-24T06:13:27;18.50;92.20
298;DHT22;133;49.626;9.680;2023-08-24T06:15:53;18.50;92.10
298;DHT22;133;49.626;9.680;2023-08-24T06:18:20;18.70;90.60
298;DHT22;133;49.626;9.680;2023-08-24T06:20:46;18.80;89.40
298;DHT22;133;49.626;9.680;2023-08-24T06:23:12;18.80;89.70
298;DHT22;133;49.626;9.680;2023-08-24T06:25:40;18.70;89.70
298;DHT22;133;49.626;9.680;2023-08-24T06:28:05;18.70;90.00
298;DHT22;133;49.626;9.680;2023-08-24T06:30:32;18.60;90.20
298;DHT22;133;49.626;9.680;2023-08-24T06:33:03;18.50;90.40
298;DHT22;133;49.626;9.680;2023-08-24T06:35:28;18.50;90.90
298;DHT22;133;49.626;9.680;2023-08-24T06:37:54;18.50;91.40
298;DHT22;133;49.626;9.680;2023-08-24T06:40:20;18.40;91.80
298;DHT22;133;49.626;9.680;2023-08-24T06:42:45;18.40;92.20
298;DHT22;133;49.626;9.680;2023-08-24T06:45:11;18.50;92.10
298;DHT22;133;49.626;9.680;2023-08-24T06:47:37;18.50;92.20
298;DHT22;133;49.626;9.680;2023-08-24T06:50:03;18.50;92.40
298;DHT22;133;49.626;9.680;2023-08-24T06:52:28;18.60;93.30
298;DHT22;133;49.626;9.680;2023-08-24T06:54:54;18.70;93.10
298;DHT22;133;49.626;9.680;2023-08-24T06:57:21;18.80;93.40
298;DHT22;133;49.626;9.680;2023-08-24T06:59:47;18.80;93.10
298;DHT22;133;49.626;9.680;2023-08-24T07:02:13;18.80;92.80
298;DHT22;133;49.626;9.680;2023-08-24T07:04:38;18.80;92.80
298;DHT22;133;49.626;9.680;2023-08-24T07:07:06;19.00;92.70
298;DHT22;133;49.626;9.680;2023-08-24T07:09:32;19.10;92.10
298;DHT22;133;49.626;9.680;2023-08-24T07:11:58;19.30;91.90
298;DHT22;133;49.626;9.680;2023-08-24T07:14:23;19.60;90.50
298;DHT22;133;49.626;9.680;2023-08-24T07:16:49;19.70;90.00
298;DHT22;133;49.626;9.680;2023-08-24T07:19:15;19.90;89.20
298;DHT22;133;49.626;9.680;2023-08-24T07:21:40;20.10;88.70
298;DHT22;133;49.626;9.680;2023-08-24T07:24:06;20.30;88.10
298;DHT22;133;49.626;9.680;2023-08-24T07:26:32;20.40;87.90
298;DHT22;133;49.626;9.680;2023-08-24T07:28:58;20.60;87.80
298;DHT22;133;49.626;9.680;2023-08-24T07:31:25;20.80;87.40
298;DHT22;133;49.626;9.680;2023-08-24T07:33:50;21.00;86.30
298;DHT22;133;49.626;9.680;2023-08-24T07:36:16;21.30;85.90
298;DHT22;133;49.626;9.680;2023-08-24T07:38:41;21.50;85.20
298;DHT22;133;49.626;9.680;2023-08-24T07:41:07;21.60;84.50
298;DHT22;133;49.626;9.680;2023-08-24T07:43:34;21.70;84.00
298;DHT22;133;49.626;9.680;2023-08-24T07:46:00;21.60;84.40
298;DHT22;133;49.626;9.680;2023-08-24T07:48:26;21.30;85.00
298;DHT22;133;49.626;9.680;2023-08-24T07:50:51;21.30;85.00
298;DHT22;133;49.626;9.680;2023-08-24T07:53:17;21.30;85.40
298;DHT22;133;49.626;9.680;2023-08-24T07:55:43;21.20;85.80
298;DHT22;133;49.626;9.680;2023-08-24T07:58:08;21.20;86.10
298;DHT22;133;49.626;9.680;2023-08-24T08:00:34;21.20;86.00
298;DHT22;133;49.626;9.680;2023-08-24T08:03:00;21.10;86.20
298;DHT22;133;49.626;9.680;2023-08-24T08:05:25;21.20;86.10
298;DHT22;133;49.626;9.680;2023-08-24T08:07:52;21.20;85.60
298;DHT22;133;49.626;9.680;2023-08-24T08:10:18;21.30;85.70
298;DHT22;133;49.626;9.680;2023-08-24T08:12:45;21.30;85.10
298;DHT22;133;49.626;9.680;2023-08-24T08:15:11;21.40;84.90
298;DHT22;133;49.626;9.680;2023-08-24T08:17:37;21.50;84.60
298;DHT22;133;49.626;9.680;2023-08-24T08:20:02;21.60;84.30
298;DHT22;133;49.626;9.680;2023-08-24T08:22:28;21.70;84.10
298;DHT22;133;49.626;9.680;2023-08-24T08:24:54;21.80;84.00
298;DHT22;133;49.626;9.680;2023-08-24T08:27:22;21.80;84.00
298;DHT22;133;49.626;9.680;2023-08-24T08:29:47;21.90;83.80
298;DHT22;133;49.626;9.680;2023-08-24T08:32:13;21.80;83.80
298;DHT22;133;49.626;9.680;2023-08-24T08:34:40;21.80;84.50
298;DHT22;133;49.626;9.680;2023-08-24T08:37:06;21.90;84.20
298;DHT22;133;49.626;9.680;2023-08-24T08:39:34;22.10;83.70
298;DHT22;133;49.626;9.680;2023-08-24T08:42:01;22.10;83.90
298;DHT22;133;49.626;9.680;2023-08-24T08:44:30;22.20;83.60
298;DHT22;133;49.626;9.680;2023-08-24T08:46:59;22.20;83.60
298;DHT22;133;49.626;9.680;2023-08-24T08:49:25;22.30;83.10
298;DHT22;133;49.626;9.680;2023-08-24T08:51:50;22.50;82.70
298;DHT22;133;49.626;9.680;2023-08-24T08:54:17;22.60;82.20
298;DHT22;133;49.626;9.680;2023-08-24T08:56:42;22.60;82.10
298;DHT22;133;49.626;9.680;2023-08-24T08:59:09;22.80;81.30
298;DHT22;133;49.626;9.680;2023-08-24T09:01:37;22.90;81.10
298;DHT22;133;49.626;9.680;2023-08-24T09:04:04;23.00;81.00
298;DHT22;133;49.626;9.680;2023-08-24T09:06:31;23.20;80.90
298;DHT22;133;49.626;9.680;2023-08-24T09:08:57;23.40;80.80
298;DHT22;133;49.626;9.680;2023-08-24T09:11:23;23.80;79.80
298;DHT22;133;49.626;9.680;2023-08-24T09:13:49;24.20;79.60
298;DHT22;133;49.626;9.680;2023-08-24T09:16:15;24.50;78.50
298;DHT22;133;49.626;9.680;2023-08-24T09:18:46;24.80;77.50
298;DHT22;133;49.626;9.680;2023-08-24T09:21:14;25.20;76.90
298;DHT22;133;49.626;9.680;2023-08-24T09:23:44;25.60;74.80
298;DHT22;133;49.626;9.680;2023-08-24T09:26:11;26.00;72.50
298;DHT22;133;49.626;9.680;2023-08-24T09:28:37;26.20;70.20
298;DHT22;133;49.626;9.680;2023-08-24T09:31:05;26.50;69.60
298;DHT22;133;49.626;9.680;2023-08-24T09:33:30;26.90;69.60
298;DHT22;133;49.626;9.680;2023-08-24T09:35:56;27.20;69.30
298;DHT22;133;49.626;9.680;2023-08-24T09:38:27;27.40;67.90
298;DHT22;133;49.626;9.680;2023-08-24T09:40:54;27.60;66.40
298;DHT22;133;49.626;9.680;2023-08-24T09:43:21;27.70;66.60
298;DHT22;133;49.626;9.680;2023-08-24T09:45:54;27.80;65.40
298;DHT22;133;49.626;9.680;2023-08-24T09:48:21;27.90;65.00
298;DHT22;133;49.626;9.680;2023-08-24T09:50:49;28.10;64.80
298;DHT22;133;49.626;9.680;2023-08-24T09:53:20;28.40;64.80
298;DHT22;133;49.626;9.680;2023-08-24T09:56:00;28.80;64.40
298;DHT22;133;49.626;9.680;2023-08-24T09:58:27;29.00;63.40
298;DHT22;133;49.626;9.680;2023-08-24T10:00:56;29.20;62.80
298;DHT22;133;49.626;9.680;2023-08-24T10:06:28;29.20;62.80
298;DHT22;133;49.626;9.680;2023-08-24T10:08:57;29.40;62.40
298;DHT22;133;49.626;9.680;2023-08-24T10:11:50;29.40;61.60
298;DHT22;133;49.626;9.680;2023-08-24T10:14:27;29.50;61.00
298;DHT22;133;49.626;9.680;2023-08-24T10:17:00;29.50;61.00
298;DHT22;133;49.626;9.680;2023-08-24T10:19:27;29.40;60.10
298;DHT22;133;49.626;9.680;2023-08-24T10:21:56;29.50;61.10
298;DHT22;133;49.626;9.680;2023-08-24T10:24:23;29.40;60.80
298;DHT22;133;49.626;9.680;2023-08-24T10:26:50;29.40;59.50
298;DHT22;133;49.626;9.680;2023-08-24T10:29:16;29.30;59.70
298;DHT22;133;49.626;9.680;2023-08-24T10:31:43;29.30;59.90
298;DHT22;133;49.626;9.680;2023-08-24T10:34:10;29.40;61.00
298;DHT22;133;49.626;9.680;2023-08-24T10:36:39;29.50;60.30
298;DHT22;133;49.626;9.680;2023-08-24T10:39:13;29.70;59.70
298;DHT22;133;49.626;9.680;2023-08-24T10:41:52;30.00;59.10
298;DHT22;133;49.626;9.680;2023-08-24T10:45:05;30.30;58.70
298;DHT22;133;49.626;9.680;2023-08-24T10:47:44;30.90;56.70
298;DHT22;133;49.626;9.680;2023-08-24T10:50:11;31.60;56.50
298;DHT22;133;49.626;9.680;2023-08-24T10:52:37;32.00;54.90
298;DHT22;133;49.626;9.680;2023-08-24T10:55:23;32.60;53.50
298;DHT22;133;49.626;9.680;2023-08-24T10:57:59;32.90;53.20
298;DHT22;133;49.626;9.680;2023-08-24T11:06:32;34.60;50.40
298;DHT22;133;49.626;9.680;2023-08-24T11:09:08;35.10;49.30
298;DHT22;133;49.626;9.680;2023-08-24T11:11:40;35.90;49.40
298;DHT22;133;49.626;9.680;2023-08-24T11:14:23;36.30;48.00
298;DHT22;133;49.626;9.680;2023-08-24T11:16:52;36.60;48.20
298;DHT22;133;49.626;9.680;2023-08-24T11:20:01;37.20;46.40
298;DHT22;133;49.626;9.680;2023-08-24T11:23:04;37.30;46.60
298;DHT22;133;49.626;9.680;2023-08-24T11:29:11;37.70;46.00
298;DHT22;133;49.626;9.680;2023-08-24T11:31:41;37.80;46.20
298;DHT22;133;49.626;9.680;2023-08-24T11:34:18;37.90;46.90
298;DHT22;133;49.626;9.680;2023-08-24T11:36:47;37.80;45.80
298;DHT22;133;49.626;9.680;2023-08-24T11:39:18;38.40;45.60
298;DHT22;133;49.626;9.680;2023-08-24T11:42:35;38.80;44.30
298;DHT22;133;49.626;9.680;2023-08-24T11:45:01;38.90;44.80
298;DHT22;133;49.626;9.680;2023-08-24T11:47:27;38.70;45.30
298;DHT22;133;49.626;9.680;2023-08-24T11:49:53;38.90;44.10
298;DHT22;133;49.626;9.680;2023-08-24T11:52:19;39.10;44.20
298;DHT22;133;49.626;9.680;2023-08-24T11:54:51;39.10;44.30
298;DHT22;133;49.626;9.680;2023-08-24T11:57:17;39.50;44.20
298;DHT22;133;49.626;9.680;2023-08-24T11:59:43;40.10;43.10
298;DHT22;133;49.626;9.680;2023-08-24T12:02:10;39.80;43.00
298;DHT22;133;49.626;9.680;2023-08-24T12:04:40;40.30;41.80
298;DHT22;133;49.626;9.680;2023-08-24T12:07:14;40.70;41.30
298;DHT22;133;49.626;9.680;2023-08-24T12:09:41;41.20;40.80
298;DHT22;133;49.626;9.680;2023-08-24T12:12:16;41.50;40.70
298;DHT22;133;49.626;9.680;2023-08-24T12:14:50;41.10;40.90
298;DHT22;133;49.626;9.680;2023-08-24T12:17:45;40.90;40.90
298;DHT22;133;49.626;9.680;2023-08-24T12:20:21;41.70;40.00
298;DHT22;133;49.626;9.680;2023-08-24T12:23:14;41.90;40.20
298;DHT22;133;49.626;9.680;2023-08-24T12:25:46;41.80;39.30
298;DHT22;133;49.626;9.680;2023-08-24T12:28:15;41.60;40.90
298;DHT22;133;49.626;9.680;2023-08-24T12:30:51;42.00;39.70
298;DHT22;133;49.626;9.680;2023-08-24T12:33:24;41.70;39.80
298;DHT22;133;49.626;9.680;2023-08-24T12:35:51;41.90;40.00
298;DHT22;133;49.626;9.680;2023-08-24T12:38:17;41.10;41.50
298;DHT22;133;49.626;9.680;2023-08-24T12:40:46;41.00;41.30
298;DHT22;133;49.626;9.680;2023-08-24T12:43:11;40.70;41.80
298;DHT22;133;49.626;9.680;2023-08-24T12:45:39;40.70;42.20
298;DHT22;133;49.626;9.680;2023-08-24T12:48:28;40.80;42.00
298;DHT22;133;49.626;9.680;2023-08-24T12:51:00;40.70;41.90
298;DHT22;133;49.626;9.680;2023-08-24T12:53:29;39.90;42.70
298;DHT22;133;49.626;9.680;2023-08-24T12:55:55;39.40;43.90
298;DHT22;133;49.626;9.680;2023-08-24T12:58:42;39.00;43.90
298;DHT22;133;49.626;9.680;2023-08-24T13:01:13;38.80;44.40
298;DHT22;133;49.626;9.680;2023-08-24T13:03:39;38.90;44.90
298;DHT22;133;49.626;9.680;2023-08-24T13:06:05;38.60;45.60
298;DHT22;133;49.626;9.680;2023-08-24T13:08:34;38.70;44.70
298;DHT22;133;49.626;9.680;2023-08-24T13:14:17;39.10;44.00
298;DHT22;133;49.626;9.680;2023-08-24T13:16:46;39.40;43.00
298;DHT22;133;49.626;9.680;2023-08-24T13:22:44;39.30;44.10
298;DHT22;133;49.626;9.680;2023-08-24T13:25:10;39.20;43.80
298;DHT22;133;49.626;9.680;2023-08-24T13:27:36;39.40;43.30
298;DHT22;133;49.626;9.680;2023-08-24T13:30:14;39.60;43.10
298;DHT22;133;49.626;9.680;2023-08-24T13:32:40;39.10;43.70
298;DHT22;133;49.626;9.680;2023-08-24T13:35:07;39.00;43.90
298;DHT22;133;49.626;9.680;2023-08-24T13:37:34;39.10;43.20
298;DHT22;133;49.626;9.680;2023-08-24T13:40:03;39.50;43.40
298;DHT22;133;49.626;9.680;2023-08-24T13:42:29;39.50;43.60
298;DHT22;133;49.626;9.680;2023-08-24T13:47:41;39.40;43.10
298;DHT22;133;49.626;9.680;2023-08-24T13:50:08;39.40;43.10
298;DHT22;133;49.626;9.680;2023-08-24T13:52:39;39.00;43.90
298;DHT22;133;49.626;9.680;2023-08-24T13:55:08;38.90;43.50
298;DHT22;133;49.626;9.680;2023-08-24T13:57:34;38.60;44.20
298;DHT22;133;49.626;9.680;2023-08-24T14:00:00;38.40;45.00
298;DHT22;133;49.626;9.680;2023-08-24T14:02:26;38.40;45.00
298;DHT22;133;49.626;9.680;2023-08-24T14:04:52;38.60;45.00
298;DHT22;133;49.626;9.680;2023-08-24T14:07:18;38.70;44.60
298;DHT22;133;49.626;9.680;2023-08-24T14:09:45;38.70;44.40
298;DHT22;133;49.626;9.680;2023-08-24T14:12:10;38.70;44.70
298;DHT22;133;49.626;9.680;2023-08-24T14:14:39;38.60;44.80
298;DHT22;133;49.626;9.680;2023-08-24T14:17:06;38.40;44.40
298;DHT22;133;49.626;9.680;2023-08-24T14:19:31;38.30;44.80
298;DHT22;133;49.626;9.680;2023-08-24T14:21:57;37.80;45.50
298;DHT22;133;49.626;9.680;2023-08-24T14:24:26;37.60;46.20
298;DHT22;133;49.626;9.680;2023-08-24T14:27:02;37.40;46.40
298;DHT22;133;49.626;9.680;2023-08-24T14:29:29;37.10;46.80
298;DHT22;133;49.626;9.680;2023-08-24T14:35:20;36.90;47.30
298;DHT22;133;49.626;9.680;2023-08-24T14:37:52;36.60;48.20
298;DHT22;133;49.626;9.680;2023-08-24T14:40:18;36.30;48.50
298;DHT22;133;49.626;9.680;2023-08-24T14:42:45;36.10;48.20
298;DHT22;133;49.626;9.680;2023-08-24T14:48:14;35.70;48.90
298;DHT22;133;49.626;9.680;2023-08-24T14:50:40;35.60;49.90
298;DHT22;133;49.626;9.680;2023-08-24T14:53:09;35.30;50.00
298;DHT22;133;49.626;9.680;2023-08-24T14:55:47;35.10;49.90
298;DHT22;133;49.626;9.680;2023-08-24T14:58:16;35.00;50.40
298;DHT22;133;49.626;9.680;2023-08-24T15:00:43;34.90;50.90
298;DHT22;133;49.626;9.680;2023-08-24T15:03:11;34.80;51.40
298;DHT22;133;49.626;9.680;2023-08-24T15:05:58;34.80;51.50
298;DHT22;133;49.626;9.680;2023-08-24T15:08:42;34.70;51.50
298;DHT22;133;49.626;9.680;2023-08-24T15:11:14;34.60;51.30
298;DHT22;133;49.626;9.680;2023-08-24T15:13:41;34.40;50.90
298;DHT22;133;49.626;9.680;2023-08-24T15:16:08;34.40;51.00
298;DHT22;133;49.626;9.680;2023-08-24T15:18:36;34.30;51.10
298;DHT22;133;49.626;9.680;2023-08-24T15:21:02;34.10;51.40
298;DHT22;133;49.626;9.680;2023-08-24T15:23:54;33.90;51.60
298;DHT22;133;49.626;9.680;2023-08-24T15:26:23;33.70;51.80
298;DHT22;133;49.626;9.680;2023-08-24T15:29:14;33.60;52.20
298;DHT22;133;49.626;9.680;2023-08-24T15:31:44;33.40;52.90
298;DHT22;133;49.626;9.680;2023-08-24T15:34:10;33.10;54.00
298;DHT22;133;49.626;9.680;2023-08-24T15:36:36;32.90;55.30
298;DHT22;133;49.626;9.680;2023-08-24T15:39:02;32.70;55.90
298;DHT22;133;49.626;9.680;2023-08-24T15:41:31;32.60;56.00
298;DHT22;133;49.626;9.680;2023-08-24T15:43:57;32.50;56.50
298;DHT22;133;49.626;9.680;2023-08-24T15:46:33;32.40;57.50
298;DHT22;133;49.626;9.680;2023-08-24T15:48:59;32.20;57.90
298;DHT22;133;49.626;9.680;2023-08-24T15:51:25;32.10;58.60
298;DHT22;133;49.626;9.680;2023-08-24T15:53:56;32.00;59.40
298;DHT22;133;49.626;9.680;2023-08-24T15:56:22;31.70;61.20
298;DHT22;133;49.626;9.680;2023-08-24T15:58:48;31.60;63.90
298;DHT22;133;49.626;9.680;2023-08-24T16:01:14;31.10;65.20
298;DHT22;133;49.626;9.680;2023-08-24T16:03:40;30.80;68.30
298;DHT22;133;49.626;9.680;2023-08-24T16:06:10;30.40;70.20
298;DHT22;133;49.626;9.680;2023-08-24T16:08:36;29.70;71.10
298;DHT22;133;49.626;9.680;2023-08-24T16:11:02;29.40;73.20
298;DHT22;133;49.626;9.680;2023-08-24T16:13:27;29.10;79.40
298;DHT22;133;49.626;9.680;2023-08-24T16:15:53;28.50;81.30
298;DHT22;133;49.626;9.680;2023-08-24T16:18:23;27.80;84.00
298;DHT22;133;49.626;9.680;2023-08-24T16:20:52;27.10;86.40
298;DHT22;133;49.626;9.680;2023-08-24T16:23:18;26.60;88.70
298;DHT22;133;49.626;9.680;2023-08-24T16:25:44;26.20;89.00
298;DHT22;133;49.626;9.680;2023-08-24T16:28:10;25.90;90.30
298;DHT22;133;49.626;9.680;2023-08-24T16:30:36;25.60;91.30
298;DHT22;133;49.626;9.680;2023-08-24T16:33:02;25.40;92.00
298;DHT22;133;49.626;9.680;2023-08-24T16:35:28;25.30;93.00
298;DHT22;133;49.626;9.680;2023-08-24T16:37:54;25.20;92.70
298;DHT22;133;49.626;9.680;2023-08-24T16:40:19;25.00;92.70
298;DHT22;133;49.626;9.680;2023-08-24T16:42:45;24.90;92.50
298;DHT22;133;49.626;9.680;2023-08-24T16:45:11;24.90;92.30
298;DHT22;133;49.626;9.680;2023-08-24T16:47:36;24.90;92.20
298;DHT22;133;49.626;9.680;2023-08-24T16:50:03;24.90;92.10
298;DHT22;133;49.626;9.680;2023-08-24T16:52:29;24.90;92.70
298;DHT22;133;49.626;9.680;2023-08-24T16:54:54;24.90;91.40
298;DHT22;133;49.626;9.680;2023-08-24T16:57:22;24.90;88.60
298;DHT22;133;49.626;9.680;2023-08-24T16:59:47;24.90;88.40
298;DHT22;133;49.626;9.680;2023-08-24T17:02:13;24.90;87.60
298;DHT22;133;49.626;9.680;2023-08-24T17:04:39;24.80;88.00
298;DHT22;133;49.626;9.680;2023-08-24T17:07:04;24.80;87.80
298;DHT22;133;49.626;9.680;2023-08-24T17:09:30;24.90;87.70
298;DHT22;133;49.626;9.680;2023-08-24T17:11:55;24.90;88.10
298;DHT22;133;49.626;9.680;2023-08-24T17:14:21;24.90;87.40